Time;durP1;ratioP1;P1;durP2;ratioP2;P2;SDS_P1;SDS_P2;PMS_P1;PMS_P2;Temp;Humidity;BMP_temperature;BMP_pressure;BME280_temperature;BME280_humidity;BME280_pressure;Samples;Min_cycle;Max_cycle;Signal;HPM_P1;HPM_P2
2024/01/01 00:02:15;;;;;;;22.53;13.53;;;5.80;76.60;;;7.66;56.81;96800.75;5030662;28;20045;-50
2024/01/01 00:04:42;;;;;;;26.00;14.80;;;5.80;76.40;;;7.64;56.68;96794.78;5028929;28;20416;-52
2024/01/01 00:07:10;;;;;;;23.70;14.20;;;5.80;76.10;;;7.58;56.44;96787.47;5028704;28;20053;-51
2024/01/01 00:09:37;;;;;;;25.70;15.03;;;5.90;76.00;;;7.59;57.02;96789.97;5029733;28;20049;-52
2024/01/01 00:12:08;;;;;;;26.53;16.27;;;6.00;75.20;;;7.61;56.87;96795.94;5028952;28;20052;-50
2024/01/01 00:14:35;;;;;;;23.40;14.07;;;6.00;75.60;;;7.65;56.69;96791.97;5029603;28;20045;-53
2024/01/01 00:17:03;;;;;;;25.33;16.17;;;6.00;75.40;;;7.64;56.46;96781.56;5029635;28;20041;-50
2024/01/01 00:19:31;;;;;;;22.33;14.57;;;5.90;75.90;;;7.63;56.46;96785.19;5029879;28;20054;-49
2024/01/01 00:21:58;;;;;;;27.40;16.77;;;5.90;75.60;;;7.62;56.51;96788.84;5030020;28;20049;-49
2024/01/01 00:24:26;;;;;;;26.67;15.83;;;5.80;75.90;;;7.63;56.45;96782.53;5030016;28;20049;-52
2024/01/01 00:26:54;;;;;;;28.30;16.60;;;5.80;76.20;;;7.60;56.65;96786.34;5030420;28;20057;-51
2024/01/01 00:29:21;;;;;;;31.80;18.27;;;5.80;75.90;;;7.60;56.49;96789.00;5029292;28;20512;-52
2024/01/01 00:32:00;;;;;;;26.93;16.50;;;5.80;75.90;;;7.60;56.64;96778.41;5029926;28;20420;-52
2024/01/01 00:34:28;;;;;;;25.70;15.67;;;5.80;76.20;;;7.61;56.35;96782.69;5028946;28;20064;-51
2024/01/01 00:36:56;;;;;;;26.80;15.97;;;5.80;76.20;;;7.58;56.47;96790.13;5028347;28;20056;-49
2024/01/01 00:39:23;;;;;;;26.13;17.10;;;5.70;76.20;;;7.57;56.51;96783.19;5028377;28;20038;-52
2024/01/01 00:41:51;;;;;;;26.27;17.83;;;5.60;77.00;;;7.57;56.75;96770.75;5036169;28;20057;-49
2024/01/01 00:44:18;;;;;;;28.33;16.77;;;5.60;77.40;;;7.61;56.69;96784.50;5029061;28;20049;-53
2024/01/01 00:46:46;;;;;;;25.10;15.63;;;5.60;77.40;;;7.60;56.72;96783.69;5028814;28;20053;-52
2024/01/01 00:49:13;;;;;;;30.23;18.53;;;5.60;77.00;;;7.60;56.54;96783.69;5029542;28;20045;-48
2024/01/01 00:51:41;;;;;;;25.80;16.03;;;5.70;77.20;;;7.58;56.56;96785.69;5028542;28;20042;-49
2024/01/01 00:54:11;;;;;;;27.73;17.53;;;5.60;77.20;;;7.54;56.80;96784.34;5027876;28;20052;-51
2024/01/01 00:56:39;;;;;;;29.10;17.93;;;5.60;77.40;;;7.53;56.54;96785.31;5029223;28;20042;-51
2024/01/01 00:59:06;;;;;;;26.33;16.83;;;5.50;77.70;;;7.48;56.43;96793.78;5028080;28;20038;-50
2024/01/01 01:01:34;;;;;;;25.10;15.47;;;5.50;78.20;;;7.48;56.97;96790.28;5029665;28;20049;-50
2024/01/01 01:04:02;;;;;;;25.40;15.43;;;5.50;78.00;;;7.44;56.71;96795.09;5020267;28;20057;-51
2024/01/01 01:06:30;;;;;;;26.83;16.10;;;5.40;78.20;;;7.43;56.57;96801.38;5028961;28;20056;-52
2024/01/01 01:08:58;;;;;;;24.40;16.03;;;5.40;78.00;;;7.42;57.01;96807.63;5028183;28;20541;-52
2024/01/01 01:11:25;;;;;;;24.73;14.50;;;5.40;78.70;;;7.40;57.23;96806.16;5030691;28;20052;-52
2024/01/01 01:13:53;;;;;;;27.83;15.63;;;5.40;78.90;;;7.42;57.44;96809.47;5036763;28;20045;-53
2024/01/01 01:16:21;;;;;;;24.40;15.80;;;5.50;79.20;;;7.43;57.51;96814.59;5030593;28;20033;-53
2024/01/01 01:18:48;;;;;;;28.80;14.73;;;5.60;79.00;;;7.44;57.14;96813.63;5030092;28;20041;-53
2024/01/01 01:21:16;;;;;;;26.13;14.73;;;5.60;79.00;;;7.47;57.31;96809.81;5029055;28;20053;-52
2024/01/01 01:23:44;;;;;;;27.43;15.13;;;5.60;79.10;;;7.48;57.53;96819.41;5029937;28;20049;-52
2024/01/01 01:26:11;;;;;;;24.83;14.37;;;5.60;79.20;;;7.47;57.54;96823.88;5031411;28;20048;-52
2024/01/01 01:28:39;;;;;;;25.70;15.50;;;5.60;79.40;;;7.49;57.58;96816.59;5040817;28;20068;-53
2024/01/01 01:31:07;;;;;;;25.77;15.67;;;5.70;79.80;;;7.51;57.65;96815.63;5032339;28;20096;-52
2024/01/01 01:33:34;;;;;;;24.23;15.43;;;5.70;80.40;;;7.51;57.64;96808.50;5032502;28;20072;-53
2024/01/01 01:36:02;;;;;;;22.17;14.23;;;5.70;80.60;;;7.48;58.06;96800.88;5041176;28;20049;-53
2024/01/01 01:38:31;;;;;;;25.80;14.63;;;5.60;81.00;;;7.49;58.14;96808.66;5032749;28;20038;-52
2024/01/01 01:40:59;;;;;;;22.50;13.13;;;5.60;80.80;;;7.48;58.24;96796.41;5032240;28;20056;-52
2024/01/01 01:43:27;;;;;;;20.80;10.93;;;5.70;81.30;;;7.49;58.18;96799.88;5015987;28;20072;-49
2024/01/01 01:45:56;;;;;;;21.73;11.80;;;5.70;81.00;;;7.49;58.09;96795.41;5032085;28;20049;-53
2024/01/01 01:48:25;;;;;;;13.83;9.43;;;5.70;81.10;;;7.51;58.00;96802.38;5033218;28;20052;-53
2024/01/01 01:50:54;;;;;;;14.17;9.57;;;5.70;81.20;;;7.54;58.38;96800.25;5031987;28;20060;-50
2024/01/01 01:53:26;;;;;;;13.27;8.50;;;5.80;81.10;;;7.51;58.51;96797.91;5032208;28;20044;-53
2024/01/01 01:55:58;;;;;;;19.40;8.83;;;5.80;80.70;;;7.53;58.62;96803.03;5032516;28;20041;-51
2024/01/01 01:58:26;;;;;;;17.00;10.17;;;5.80;80.20;;;7.58;58.75;96804.22;5016297;28;20041;-49
2024/01/01 02:00:55;;;;;;;13.63;8.40;;;5.90;80.20;;;7.60;58.60;96804.03;5031801;28;20049;-52
2024/01/01 02:03:22;;;;;;;20.43;8.77;;;5.90;79.90;;;7.63;58.13;96801.06;5015652;28;20045;-49
2024/01/01 02:05:50;;;;;;;15.67;8.33;;;6.00;79.50;;;7.64;58.28;96802.75;5032527;28;20052;-51
2024/01/01 02:08:19;;;;;;;11.63;7.10;;;6.00;79.20;;;7.67;58.21;96800.56;5032567;28;20054;-50
2024/01/01 02:10:47;;;;;;;13.03;7.07;;;6.10;78.80;;;7.69;58.08;96790.63;5014925;28;20050;-49
2024/01/01 02:13:29;;;;;;;9.23;6.37;;;6.10;78.50;;;7.62;58.40;96791.47;5031902;28;20045;-52
2024/01/01 02:15:57;;;;;;;10.03;5.73;;;6.00;78.30;;;7.64;57.92;96787.66;5033138;28;20049;-51
2024/01/01 02:18:27;;;;;;;11.90;6.03;;;5.90;79.10;;;7.68;58.17;96789.00;5033473;28;20045;-53
2024/01/01 02:20:56;;;;;;;9.93;5.77;;;6.00;79.10;;;7.73;58.28;96782.38;5031309;28;20065;-52
2024/01/01 02:23:27;;;;;;;10.97;5.90;;;6.00;79.00;;;7.74;58.12;96781.38;5032011;28;20049;-52
2024/01/01 02:25:55;;;;;;;10.70;4.70;;;6.00;78.70;;;7.72;58.02;96791.31;5033121;28;20041;-50
2024/01/01 02:28:22;;;;;;;11.03;5.23;;;6.00;78.80;;;7.71;58.03;96790.47;5033165;28;20041;-52
2024/01/01 02:30:50;;;;;;;7.60;4.50;;;6.00;78.90;;;7.75;58.08;96785.69;5031640;28;20049;-52
2024/01/01 02:33:18;;;;;;;7.80;4.57;;;6.00;79.30;;;7.80;57.92;96793.97;5031277;28;20045;-54
2024/01/01 02:35:45;;;;;;;9.07;5.20;;;6.00;79.20;;;7.83;57.88;96799.78;5031486;28;20045;-54
2024/01/01 02:38:13;;;;;;;6.83;4.37;;;6.10;78.90;;;7.85;57.79;96796.94;5031468;28;20045;-53
2024/01/01 02:40:41;;;;;;;6.43;4.50;;;6.00;78.50;;;7.85;57.68;96791.63;5031500;28;20049;-54
2024/01/01 02:43:09;;;;;;;7.37;3.90;;;6.10;78.80;;;7.88;57.72;96797.44;5032690;28;20511;-51
2024/01/01 02:45:36;;;;;;;8.30;4.20;;;6.10;78.10;;;7.88;57.66;96808.03;5031430;28;20041;-51
2024/01/01 02:48:04;;;;;;;6.53;3.50;;;6.10;78.50;;;7.92;57.73;96815.69;5014294;28;20057;-50
2024/01/01 02:50:33;;;;;;;8.67;3.13;;;6.20;78.60;;;7.96;57.88;96814.34;5032386;28;20425;-53
2024/01/01 02:53:00;;;;;;;6.60;3.27;;;6.20;78.50;;;7.96;57.54;96809.88;5032241;28;20048;-50
2024/01/01 02:55:28;;;;;;;5.97;2.97;;;6.10;78.40;;;7.93;57.73;96804.91;5030990;28;20041;-53
2024/01/01 02:57:56;;;;;;;6.03;3.10;;;6.10;78.70;;;7.94;57.82;96809.22;5032302;28;20056;-51
2024/01/01 03:00:23;;;;;;;6.23;3.13;;;6.10;78.80;;;7.95;57.71;96799.44;5032276;28;20034;-53
2024/01/01 03:02:51;;;;;;;5.23;3.00;;;6.10;78.40;;;7.98;57.48;96799.13;5030857;28;20064;-52
2024/01/01 03:05:22;;;;;;;5.13;3.10;;;6.20;78.70;;;8.01;57.72;96807.56;5031125;28;20065;-50
2024/01/01 03:07:50;;;;;;;5.17;2.83;;;6.20;78.40;;;8.06;57.74;96807.91;5030805;28;20053;-53
2024/01/01 03:10:18;;;;;;;6.13;3.20;;;6.30;78.50;;;8.09;57.64;96806.75;5031955;28;20104;-52
2024/01/01 03:12:45;;;;;;;4.40;2.10;;;6.30;78.10;;;8.06;57.51;96807.91;5032456;28;20429;-53
2024/01/01 03:15:13;;;;;;;5.53;2.50;;;6.30;78.00;;;8.05;57.64;96810.72;5030524;28;20045;-54
2024/01/01 03:17:41;;;;;;;5.20;3.33;;;6.30;78.80;;;8.08;57.83;96819.19;5030755;28;20060;-51
2024/01/01 03:20:09;;;;;;;4.20;1.83;;;6.30;78.40;;;8.07;57.65;96812.19;5022399;28;20204;-51
2024/01/01 03:22:38;;;;;;;3.00;2.07;;;6.30;78.10;;;8.09;57.52;96818.16;5030557;28;20065;-53
2024/01/01 03:25:07;;;;;;;4.67;2.83;;;6.30;78.50;;;8.08;57.53;96821.81;5031545;28;20128;-51
2024/01/01 03:27:35;;;;;;;3.73;2.17;;;6.30;78.70;;;8.07;57.66;96827.28;5030635;28;20042;-50
2024/01/01 03:30:08;;;;;;;6.40;3.07;;;6.30;78.60;;;8.07;57.71;96814.84;5030526;28;20053;-50
2024/01/01 03:32:36;;;;;;;4.50;2.25;;;6.30;79.40;;;8.09;57.72;96810.22;5030073;28;20390;-54
2024/01/01 03:35:04;;;;;;;4.47;2.70;;;6.30;78.50;;;8.12;57.54;96818.81;5031849;28;20053;-52
2024/01/01 03:37:32;;;;;;;4.13;2.40;;;6.30;78.60;;;8.10;57.55;96816.34;5030529;28;20489;-52
2024/01/01 03:40:00;;;;;;;5.73;2.40;;;6.40;78.20;;;8.09;57.50;96830.59;5030537;28;20048;-50
2024/01/01 03:42:27;;;;;;;6.57;1.93;;;6.30;78.70;;;8.12;57.59;96824.94;5030944;28;20053;-50
2024/01/01 03:44:55;;;;;;;4.67;2.00;;;6.40;78.60;;;8.12;57.68;96819.66;5030114;28;20049;-52
2024/01/01 03:47:23;;;;;;;5.27;2.13;;;6.40;78.10;;;8.11;57.64;96822.50;5031599;28;20037;-49
2024/01/01 03:49:55;;;;;;;3.77;2.33;;;6.30;78.30;;;8.06;57.51;96831.78;5029402;28;20049;-51
2024/01/01 03:52:23;;;;;;;5.27;2.03;;;6.30;78.70;;;8.04;57.56;96831.06;5031227;28;20432;-51
2024/01/01 03:54:51;;;;;;;4.77;2.53;;;6.20;78.40;;;8.01;57.58;96830.59;5031594;28;20044;-52
2024/01/01 03:57:19;;;;;;;4.70;1.90;;;6.20;78.00;;;7.99;57.76;96841.38;5031200;28;20052;-53
2024/01/01 03:59:46;;;;;;;3.23;1.97;;;6.20;78.20;;;7.94;57.65;96835.72;5029438;28;20041;-51
2024/01/01 04:02:14;;;;;;;3.27;1.70;;;6.20;78.00;;;7.98;57.56;96839.69;5030064;28;20049;-52
2024/01/01 04:04:43;;;;;;;2.80;1.40;;;6.20;78.10;;;7.98;57.55;96842.34;5029023;28;20496;-52
2024/01/01 04:07:11;;;;;;;5.90;1.80;;;6.20;77.90;;;7.94;57.52;96848.16;5029274;28;20045;-54
2024/01/01 04:09:39;;;;;;;4.43;1.60;;;6.20;77.80;;;7.90;57.49;96839.69;5030158;28;20524;-53
2024/01/01 04:12:06;;;;;;;5.50;1.87;;;6.20;78.00;;;7.87;57.56;96847.94;5029679;28;20045;-54
2024/01/01 04:14:35;;;;;;;4.67;1.60;;;6.10;78.30;;;7.83;57.34;96841.34;5029895;28;20444;-53
2024/01/01 04:17:05;;;;;;;3.23;1.83;;;6.10;78.10;;;7.81;57.47;96830.91;5030757;28;20053;-52
2024/01/01 04:19:33;;;;;;;3.57;1.80;;;6.10;78.50;;;7.76;57.61;96843.00;5030751;28;20048;-53
2024/01/01 04:22:01;;;;;;;2.93;1.60;;;6.00;78.80;;;7.73;57.74;96844.13;5030831;28;20068;-51
2024/01/01 04:24:29;;;;;;;6.03;1.53;;;6.00;78.90;;;7.76;57.54;96841.16;5030837;28;20064;-52
2024/01/01 04:26:56;;;;;;;7.00;2.20;;;6.00;78.70;;;7.79;57.81;96843.50;5030714;28;20049;-52
2024/01/01 04:29:24;;;;;;;4.80;2.37;;;6.10;78.40;;;7.82;57.91;96843.16;5030521;28;20046;-51
2024/01/01 04:31:52;;;;;;;2.90;1.70;;;6.10;78.70;;;7.83;57.69;96839.53;5030675;28;20053;-52
2024/01/01 04:34:20;;;;;;;4.07;1.83;;;6.00;78.70;;;7.86;57.70;96833.06;5030555;28;20044;-53
2024/01/01 04:36:47;;;;;;;3.93;1.43;;;6.10;78.70;;;7.86;57.60;96833.06;5029726;28;20060;-54
2024/01/01 04:39:15;;;;;;;4.43;1.77;;;6.10;77.80;;;7.83;57.36;96828.94;5029888;28;20517;-51
2024/01/01 04:41:42;;;;;;;7.73;1.93;;;6.00;78.30;;;7.82;57.40;96824.59;5030762;28;20045;-53
2024/01/01 04:44:10;;;;;;;5.23;1.60;;;5.90;78.20;;;7.80;57.26;96821.28;5030972;28;20046;-53
2024/01/01 04:46:38;;;;;;;5.53;1.93;;;5.90;77.90;;;7.75;57.27;96820.94;5030768;28;20052;-54
2024/01/01 04:49:06;;;;;;;6.50;1.53;;;5.80;78.30;;;7.71;57.04;96816.16;5030265;28;20397;-52
2024/01/01 04:51:33;;;;;;;4.93;1.70;;;5.70;79.60;;;7.65;57.21;96818.44;5030728;28;20048;-52
2024/01/01 04:54:01;;;;;;;3.17;1.20;;;5.70;78.60;;;7.63;57.29;96824.91;5030411;28;20053;-52
2024/01/01 04:56:29;;;;;;;3.60;1.40;;;5.70;78.60;;;7.59;57.16;96820.94;5030572;28;20041;-52
2024/01/01 04:58:57;;;;;;;5.40;2.53;;;5.70;78.20;;;7.56;56.96;96822.09;5030861;28;20050;-52
2024/01/01 05:01:27;;;;;;;3.37;1.57;;;5.70;77.70;;;7.56;57.11;96824.75;5033679;28;20046;-53
2024/01/01 05:03:54;;;;;;;7.87;1.30;;;5.60;77.70;;;7.50;57.37;96828.00;5034321;28;20049;-51
2024/01/01 05:06:22;;;;;;;4.30;1.40;;;5.70;77.60;;;7.52;57.09;96835.81;5034764;28;20048;-53
2024/01/01 05:08:50;;;;;;;6.00;1.47;;;5.70;77.20;;;7.48;57.25;96836.16;5033681;28;20052;-50
2024/01/01 05:11:17;;;;;;;3.93;1.40;;;5.80;76.60;;;7.54;57.44;96844.41;5033744;28;20416;-52
2024/01/01 05:13:45;;;;;;;6.03;1.47;;;5.80;75.80;;;7.56;57.19;96850.38;5034836;28;20044;-53
2024/01/01 05:16:13;;;;;;;7.70;2.20;;;5.90;75.90;;;7.63;57.36;96844.28;5033072;28;20520;-52
2024/01/01 05:18:40;;;;;;;4.03;1.77;;;6.00;75.30;;;7.69;57.04;96848.91;5033106;28;20048;-54
2024/01/01 05:21:08;;;;;;;5.90;1.67;;;6.00;75.90;;;7.75;57.12;96857.22;5034140;28;20075;-50
2024/01/01 05:23:36;;;;;;;5.70;1.50;;;6.00;76.40;;;7.77;56.90;96850.75;5034179;28;20037;-52
2024/01/01 05:26:04;;;;;;;2.73;1.30;;;6.00;76.50;;;7.77;56.71;96857.88;5034408;28;20057;-53
2024/01/01 05:28:31;;;;;;;4.43;1.47;;;5.90;76.20;;;7.72;56.93;96853.09;5034007;28;20609;-50
2024/01/01 05:30:59;;;;;;;4.90;1.53;;;5.80;76.30;;;7.70;56.44;96865.66;5033698;28;20053;-55
2024/01/01 05:33:27;;;;;;;4.00;1.43;;;5.80;75.70;;;7.69;56.51;96858.69;5032800;28;20038;-50
2024/01/01 05:35:55;;;;;;;4.23;1.20;;;6.00;74.10;;;7.71;56.48;96871.78;5033646;28;20049;-52
2024/01/01 05:38:22;;;;;;;4.43;1.33;;;6.00;74.60;;;7.75;56.45;96875.78;5034338;28;20034;-48
2024/01/01 05:40:50;;;;;;;5.20;1.57;;;6.10;73.80;;;7.77;56.48;96871.97;5033505;28;20046;-51
2024/01/01 05:43:21;;;;;;;3.87;1.37;;;6.10;74.30;;;7.82;56.51;96876.78;5033399;28;20060;-52
2024/01/01 05:45:49;;;;;;;4.40;1.80;;;6.20;73.50;;;7.87;56.29;96880.59;5033843;28;20056;-49
2024/01/01 05:48:16;;;;;;;2.50;1.17;;;6.20;73.30;;;7.89;56.22;96880.44;5024966;28;20064;-49
2024/01/01 05:50:53;;;;;;;4.23;1.30;;;6.30;73.40;;;7.93;55.95;96881.78;5033256;28;20045;-49
2024/01/01 05:53:21;;;;;;;4.53;1.27;;;6.30;73.10;;;7.93;56.06;96879.13;5033519;28;20524;-48
2024/01/01 05:55:49;;;;;;;2.50;1.10;;;6.30;72.40;;;7.93;55.86;96881.78;5033814;28;20412;-52
2024/01/01 05:58:17;;;;;;;3.23;1.83;;;6.30;72.30;;;7.98;55.56;96883.94;5025936;28;20064;-52
2024/01/01 06:00:45;;;;;;;7.17;1.43;;;6.40;71.80;;;8.01;55.45;96880.97;5033294;28;20511;-49
2024/01/01 06:03:13;;;;;;;3.17;1.17;;;6.50;71.60;;;8.02;55.33;96883.44;5033101;28;20046;-54
2024/01/01 06:05:40;;;;;;;3.17;1.50;;;6.50;71.70;;;8.04;55.25;96888.56;5033646;28;20137;-50
2024/01/01 06:08:08;;;;;;;4.20;1.70;;;6.50;71.50;;;8.08;55.46;96884.59;5033419;28;20493;-51
2024/01/01 06:10:36;;;;;;;7.13;1.83;;;6.50;71.30;;;8.12;55.39;96888.56;5032470;28;20051;-51
2024/01/01 06:13:04;;;;;;;2.63;1.23;;;6.50;70.90;;;8.16;55.29;96889.94;5032517;28;20037;-54
2024/01/01 06:15:32;;;;;;;4.53;0.97;;;6.60;71.10;;;8.16;55.00;96900.53;5033297;28;20033;-54
2024/01/01 06:17:59;;;;;;;3.80;1.23;;;6.60;70.50;;;8.18;54.81;96889.75;5033303;28;20056;-50
2024/01/01 06:20:27;;;;;;;2.80;1.10;;;6.60;70.70;;;8.18;54.97;96887.94;5032999;28;20413;-51
2024/01/01 06:22:55;;;;;;;4.80;1.40;;;6.60;70.90;;;8.17;54.95;96894.22;5032910;28;20046;-52
2024/01/01 06:25:22;;;;;;;3.23;1.20;;;6.60;70.80;;;8.21;54.96;96900.03;5033237;28;20049;-50
2024/01/01 06:27:50;;;;;;;5.00;1.57;;;6.60;70.70;;;8.22;54.65;96902.53;5033043;28;20052;-51
2024/01/01 06:30:18;;;;;;;5.27;1.33;;;6.60;69.70;;;8.20;54.52;96906.31;5023845;28;20045;-51
2024/01/01 06:32:45;;;;;;;7.53;2.00;;;6.40;70.90;;;8.17;54.51;96914.63;5031737;28;20147;-53
2024/01/01 06:35:13;;;;;;;5.83;1.50;;;6.40;71.00;;;8.13;54.52;96910.63;5033059;28;20527;-50
2024/01/01 06:37:41;;;;;;;1.80;1.70;;;6.40;70.60;;;8.09;54.21;96913.59;5033030;28;20045;-52
2024/01/01 06:40:09;;;;;;;4.77;2.17;;;6.40;70.70;;;8.05;54.14;96916.75;5032527;28;20493;-53
2024/01/01 06:42:37;;;;;;;5.33;2.30;;;6.30;70.60;;;8.03;54.29;96916.09;5032391;28;20048;-52
2024/01/01 06:45:09;;;;;;;2.40;1.10;;;6.30;70.30;;;8.01;54.12;96921.53;5031111;28;20045;-52
2024/01/01 06:47:37;;;;;;;3.63;1.00;;;6.30;69.90;;;7.99;53.76;96914.75;5031737;28;20497;-53
2024/01/01 06:50:05;;;;;;;2.93;0.83;;;6.20;70.10;;;7.95;54.06;96919.56;5032231;28;20444;-53
2024/01/01 06:52:32;;;;;;;5.77;1.40;;;6.20;70.30;;;7.90;54.28;96919.19;5032476;28;20053;-54
2024/01/01 06:55:00;;;;;;;4.23;2.20;;;6.20;69.90;;;7.87;54.10;96925.66;5031337;28;20589;-51
2024/01/01 06:57:28;;;;;;;7.90;1.37;;;6.20;70.20;;;7.87;54.04;96923.00;5032602;28;20046;-50
2024/01/01 06:59:56;;;;;;;4.93;1.10;;;6.10;70.40;;;7.84;54.00;96919.84;5032120;28;20045;-51
2024/01/01 07:02:23;;;;;;;3.93;1.23;;;6.10;70.70;;;7.80;54.12;96929.13;5032425;28;20520;-50
2024/01/01 07:04:51;;;;;;;3.13;1.10;;;6.10;71.00;;;7.76;54.37;96923.31;5029863;28;20045;-51
2024/01/01 07:07:19;;;;;;;2.50;0.90;;;6.10;71.00;;;7.76;54.27;96923.31;5023584;28;20067;-52
2024/01/01 07:09:47;;;;;;;7.40;1.20;;;6.10;71.30;;;7.72;54.39;96937.88;5032006;28;20049;-50
2024/01/01 07:12:27;;;;;;;3.97;0.90;;;6.10;71.00;;;7.73;54.73;96936.03;5031100;28;20045;-51
2024/01/01 07:14:55;;;;;;;7.07;1.73;;;6.10;71.10;;;7.72;54.52;96945.81;5032209;28;20137;-50
2024/01/01 07:17:22;;;;;;;9.63;2.03;;;6.10;71.20;;;7.73;54.54;96958.06;5031025;28;20049;-49
2024/01/01 07:19:51;;;;;;;6.67;1.80;;;6.10;71.30;;;7.70;54.49;96963.69;5031972;28;20037;-51
2024/01/01 07:22:20;;;;;;;8.90;1.43;;;6.10;71.40;;;7.66;54.66;96967.66;5024103;28;20041;-49
2024/01/01 07:24:48;;;;;;;1.97;1.20;;;6.00;71.40;;;7.64;54.53;96973.09;5031258;28;20381;-50
2024/01/01 07:27:15;;;;;;;2.57;1.40;;;6.00;71.40;;;7.62;54.83;96975.09;5031900;28;20041;-50
2024/01/01 07:29:43;;;;;;;5.17;1.20;;;6.00;71.50;;;7.63;54.76;96970.63;5031697;28;20508;-52
2024/01/01 07:32:11;;;;;;;6.00;1.73;;;6.00;71.90;;;7.66;54.71;96975.59;5031613;28;20045;-52
2024/01/01 07:34:38;;;;;;;2.53;1.30;;;6.10;71.90;;;7.70;54.65;96974.28;5031884;28;20114;-49
2024/01/01 07:37:07;;;;;;;1.90;1.00;;;6.10;72.00;;;7.66;54.82;96979.09;5030391;28;20048;-55
2024/01/01 07:39:34;;;;;;;2.10;1.10;;;6.00;72.10;;;7.67;55.09;96980.72;5031755;28;20033;-53
2024/01/01 07:42:03;;;;;;;3.83;1.17;;;6.00;72.30;;;7.62;55.22;96990.97;5031957;28;20051;-52
2024/01/01 07:44:37;;;;;;;6.53;2.40;;;6.00;72.20;;;7.60;55.17;96992.09;5108873;27;20376;-50
2024/01/01 07:47:05;;;;;;;2.27;0.87;;;6.00;72.50;;;7.65;55.19;96992.47;5088474;28;20415;-51
2024/01/01 07:49:32;;;;;;;1.73;0.70;;;6.10;72.70;;;7.70;55.31;96992.84;5088104;28;20032;-50
2024/01/01 07:52:01;;;;;;;4.33;2.00;;;6.10;72.80;;;7.75;55.27;96990.53;5088376;28;20530;-50
2024/01/01 07:54:29;;;;;;;3.33;1.40;;;6.10;72.90;;;7.80;55.59;96992.72;5088132;28;20070;-51
2024/01/01 07:56:57;;;;;;;2.47;0.90;;;6.20;73.10;;;7.83;55.42;96987.06;5088176;28;20388;-50
2024/01/01 07:59:25;;;;;;;2.13;0.70;;;6.20;73.10;;;7.88;55.71;96990.91;5087960;28;20036;-53
2024/01/01 08:01:53;;;;;;;1.57;0.90;;;6.30;73.30;;;7.88;55.34;96998.88;5088252;28;20114;-52
2024/01/01 08:04:21;;;;;;;3.03;1.00;;;6.20;73.10;;;7.90;55.52;96998.72;5079717;28;20514;-52
2024/01/01 08:06:48;;;;;;;4.33;1.00;;;6.30;73.20;;;7.97;55.26;97005.03;5087954;28;20047;-51
2024/01/01 08:09:16;;;;;;;4.03;1.27;;;6.30;73.20;;;8.04;55.11;97013.16;5083217;28;20052;-49
2024/01/01 08:11:43;;;;;;;2.90;1.03;;;6.40;72.80;;;8.01;55.35;97002.91;5086700;28;20032;-51
2024/01/01 08:14:11;;;;;;;7.47;1.77;;;6.40;72.60;;;8.03;55.25;97001.75;5086961;28;20356;-52
2024/01/01 08:16:39;;;;;;;5.43;1.17;;;6.50;72.20;;;8.06;54.99;97006.72;5086800;28;20048;-50
2024/01/01 08:19:07;;;;;;;4.03;1.07;;;6.50;72.20;;;8.06;55.02;97021.78;5085049;28;20051;-49
2024/01/01 08:21:34;;;;;;;3.67;0.80;;;6.50;71.70;;;7.95;55.25;97009.66;5086964;28;20045;-50
2024/01/01 08:24:02;;;;;;;3.20;1.03;;;6.50;72.20;;;7.93;55.19;97006.34;5082607;28;20055;-50
2024/01/01 08:26:30;;;;;;;1.30;0.77;;;6.40;72.60;;;7.93;55.31;96998.41;5086763;28;20044;-49
2024/01/01 08:28:57;;;;;;;2.67;0.93;;;6.40;72.80;;;7.89;55.46;96997.88;5085422;28;20047;-50
2024/01/01 08:31:26;;;;;;;3.17;1.70;;;6.30;73.10;;;7.91;55.58;96997.72;5086264;28;20044;-51
2024/01/01 08:33:54;;;;;;;1.63;0.80;;;6.40;73.00;;;7.91;55.47;97003.03;5088621;28;20051;-52
2024/01/01 08:36:21;;;;;;;1.63;1.07;;;6.40;72.90;;;7.77;55.63;96993.03;5084744;28;20044;-51
2024/01/01 08:38:49;;;;;;;4.17;1.30;;;6.30;73.00;;;7.80;55.34;96998.00;5084797;28;20495;-51
2024/01/01 08:41:17;;;;;;;1.53;1.00;;;6.30;73.40;;;7.89;55.98;96999.72;5086285;28;20098;-52
2024/01/01 08:43:50;;;;;;;2.30;0.90;;;6.40;73.40;;;7.93;55.47;97003.69;5085928;28;20051;-52
2024/01/01 08:46:22;;;;;;;2.87;0.97;;;6.40;72.90;;;7.93;55.47;97006.34;5086507;28;20067;-53
2024/01/01 08:48:51;;;;;;;6.57;1.20;;;6.40;72.30;;;7.93;55.29;97001.06;5085118;28;20044;-51
2024/01/01 08:51:19;;;;;;;3.80;1.70;;;6.40;72.10;;;7.99;55.39;96997.75;5088004;28;20039;-52
2024/01/01 08:53:47;;;;;;;5.23;1.93;;;6.50;72.00;;;7.97;55.29;97005.03;5089949;28;20419;-53
2024/01/01 08:56:15;;;;;;;2.73;1.10;;;6.50;72.20;;;8.03;55.17;97009.69;5071986;28;20052;-52
2024/01/01 08:58:42;;;;;;;2.87;1.20;;;6.50;71.60;;;8.08;54.92;97009.19;5071967;28;20048;-50
2024/01/01 09:01:10;;;;;;;4.10;1.10;;;6.50;71.10;;;8.08;54.94;97006.53;5071813;28;20064;-50
2024/01/01 09:03:38;;;;;;;4.00;1.03;;;6.60;71.20;;;8.13;54.86;97016.69;5072390;28;20051;-50
2024/01/01 09:06:06;;;;;;;7.53;1.23;;;6.60;70.60;;;8.11;54.59;97014.19;5072662;28;20423;-49
2024/01/01 09:08:34;;;;;;;5.97;1.20;;;6.60;70.70;;;8.14;54.71;97018.34;5072177;28;20044;-50
2024/01/01 09:11:02;;;;;;;4.57;1.40;;;6.70;70.60;;;8.13;54.82;97020.16;5072055;28;20047;-49
2024/01/01 09:13:30;;;;;;;3.30;0.97;;;6.70;70.60;;;8.13;54.61;97024.66;5072590;28;20049;-49
2024/01/01 09:15:58;;;;;;;4.67;1.10;;;6.60;70.30;;;8.12;54.69;97029.09;5072116;28;20047;-49
2024/01/01 09:18:25;;;;;;;2.13;0.93;;;6.70;70.80;;;8.24;54.78;97032.31;5072359;28;20045;-49
2024/01/01 09:20:53;;;;;;;2.83;1.77;;;6.70;70.80;;;8.30;54.63;97031.66;5072322;28;20488;-50
2024/01/01 09:23:27;;;;;;;2.90;1.17;;;6.80;70.60;;;8.35;54.74;97031.16;5063974;28;20045;-51
2024/01/01 09:25:57;;;;;;;4.17;1.40;;;6.80;70.30;;;8.35;54.45;97031.97;5072361;28;20542;-51
2024/01/01 09:28:26;;;;;;;2.20;1.10;;;6.80;70.40;;;8.41;54.49;97035.81;5071945;28;20049;-49
2024/01/01 09:30:55;;;;;;;2.67;1.23;;;6.80;70.30;;;8.42;54.55;97024.25;5070322;28;20041;-52
2024/01/01 09:33:23;;;;;;;2.67;1.07;;;6.90;70.70;;;8.46;54.61;97029.06;5071761;28;20037;-52
2024/01/01 09:35:54;;;;;;;2.70;1.10;;;6.90;70.50;;;8.44;54.22;97030.22;5072142;28;20041;-52
2024/01/01 09:38:21;;;;;;;5.83;1.83;;;6.90;70.10;;;8.48;54.17;97032.38;5071643;28;20043;-52
2024/01/01 09:40:49;;;;;;;3.13;1.37;;;7.00;69.80;;;8.45;54.18;97038.03;5070264;28;20048;-50
2024/01/01 09:43:17;;;;;;;3.33;1.20;;;7.00;69.30;;;8.46;54.20;97044.16;5071917;28;20041;-49
2024/01/01 09:45:50;;;;;;;2.40;1.23;;;7.00;69.30;;;8.52;54.04;97037.38;5071792;28;20605;-52
2024/01/01 09:48:18;;;;;;;3.73;1.27;;;7.10;69.30;;;8.50;54.21;97034.88;5072801;28;20052;-53
2024/01/01 09:50:48;;;;;;;4.73;1.20;;;7.10;69.10;;;8.54;53.80;97052.13;5072473;28;20045;-49
2024/01/01 09:53:17;;;;;;;7.03;1.70;;;7.20;67.70;;;8.53;53.37;97046.97;5079802;28;20044;-50
2024/01/01 09:55:54;;;;;;;7.00;1.43;;;7.20;67.00;;;8.57;53.30;97054.47;5072729;28;20045;-52
2024/01/01 09:58:21;;;;;;;4.03;1.50;;;7.20;65.70;;;8.62;53.07;97060.09;5072169;28;20040;-50
2024/01/01 10:00:49;;;;;;;3.03;1.00;;;7.30;65.40;;;8.69;52.86;97062.13;5072005;28;20104;-48
2024/01/01 10:03:16;;;;;;;4.90;1.00;;;7.30;66.30;;;8.72;52.06;97059.13;5072180;28;20044;-51
2024/01/01 10:05:48;;;;;;;3.43;1.00;;;7.40;64.20;;;8.75;51.74;97054.31;5071881;28;20495;-49
2024/01/01 10:08:16;;;;;;;6.67;1.40;;;7.50;64.10;;;8.79;51.82;97053.00;5072057;28;20041;-49
2024/01/01 10:10:44;;;;;;;5.40;1.33;;;7.50;63.60;;;8.86;51.78;97050.53;5071999;28;20063;-51
2024/01/01 10:13:15;;;;;;;5.37;1.43;;;7.50;63.20;;;8.90;51.22;97040.38;5071687;28;20060;-50
2024/01/01 10:15:44;;;;;;;5.73;1.53;;;7.60;62.00;;;8.92;50.79;97051.66;5071774;28;20067;-51
2024/01/01 10:18:15;;;;;;;3.97;1.73;;;7.60;62.80;;;8.82;50.29;97039.41;5071956;28;20119;-53
2024/01/01 10:20:43;;;;;;;6.30;1.30;;;7.60;61.40;;;8.97;50.69;97044.03;5071367;28;20508;-50
2024/01/01 10:23:20;;;;;;;8.37;1.23;;;7.70;62.10;;;9.00;50.15;97047.19;5071835;28;20283;-52
2024/01/01 10:26:01;;;;;;;2.90;1.70;;;7.70;60.60;;;9.07;50.35;97040.25;5071388;28;20051;-54
2024/01/01 10:28:31;;;;;;;6.03;1.97;;;7.80;60.10;;;9.17;50.36;97048.03;5070041;28;20045;-54
2024/01/01 10:31:00;;;;;;;5.67;1.30;;;7.90;61.10;;;9.18;49.36;97043.53;5070999;28;20045;-49
2024/01/01 10:33:31;;;;;;;23.53;2.30;;;8.00;59.20;;;9.22;48.98;97058.16;5069705;28;20040;-53
2024/01/01 10:36:01;;;;;;;2.43;1.20;;;8.00;59.40;;;9.12;48.05;97057.50;5070073;28;20446;-53